sensor_id;sensor_type;location;lat;lon;timestamp;P1;durP1;ratioP1;P2;durP2;ratioP2
2039;SDS011;1025;42.686;23.350;2023-05-29T00:02:13;6.10;;;5.60;;
2039;SDS011;1025;42.686;23.350;2023-05-29T00:04:40;6.63;;;5.97;;
2039;SDS011;1025;42.686;23.350;2023-05-29T00:07:06;6.63;;;5.30;;
2039;SDS011;1025;42.686;23.350;2023-05-29T00:09:33;6.03;;;5.27;;
2039;SDS011;1025;42.686;23.350;2023-05-29T00:11:59;8.70;;;6.50;;
2039;SDS011;1025;42.686;23.350;2023-05-29T00:14:26;10.83;;;6.50;;
2039;SDS011;1025;42.686;23.350;2023-05-29T00:16:52;7.10;;;6.13;;
2039;SDS011;1025;42.686;23.350;2023-05-29T00:19:20;6.70;;;6.10;;
2039;SDS011;1025;42.686;23.350;2023-05-29T00:21:47;6.20;;;5.47;;
2039;SDS011;1025;42.686;23.350;2023-05-29T00:24:13;11.50;;;6.37;;
2039;SDS011;1025;42.686;23.350;2023-05-29T00:26:40;8.50;;;5.90;;
2039;SDS011;1025;42.686;23.350;2023-05-29T00:29:06;6.20;;;5.40;;
2039;SDS011;1025;42.686;23.350;2023-05-29T00:31:33;7.33;;;6.63;;
2039;SDS011;1025;42.686;23.350;2023-05-29T00:34:00;9.17;;;6.47;;
2039;SDS011;1025;42.686;23.350;2023-05-29T00:36:28;6.50;;;5.90;;
2039;SDS011;1025;42.686;23.350;2023-05-29T00:38:56;7.33;;;5.77;;
2039;SDS011;1025;42.686;23.350;2023-05-29T00:41:23;6.73;;;6.03;;
2039;SDS011;1025;42.686;23.350;2023-05-29T00:43:49;5.63;;;5.20;;
2039;SDS011;1025;42.686;23.350;2023-05-29T00:46:16;7.07;;;6.13;;
2039;SDS011;1025;42.686;23.350;2023-05-29T00:48:44;6.97;;;6.37;;
2039;SDS011;1025;42.686;23.350;2023-05-29T00:51:11;8.00;;;6.50;;
2039;SDS011;1025;42.686;23.350;2023-05-29T00:53:39;8.03;;;7.33;;
2039;SDS011;1025;42.686;23.350;2023-05-29T00:56:07;6.97;;;6.27;;
2039;SDS011;1025;42.686;23.350;2023-05-29T00:58:34;7.50;;;6.70;;
2039;SDS011;1025;42.686;23.350;2023-05-29T01:01:00;12.27;;;6.53;;
2039;SDS011;1025;42.686;23.350;2023-05-29T01:03:28;7.90;;;7.10;;
2039;SDS011;1025;42.686;23.350;2023-05-29T01:05:57;6.87;;;6.23;;
2039;SDS011;1025;42.686;23.350;2023-05-29T01:08:23;8.23;;;6.80;;
2039;SDS011;1025;42.686;23.350;2023-05-29T01:10:51;8.63;;;6.27;;
2039;SDS011;1025;42.686;23.350;2023-05-29T01:13:22;7.47;;;6.80;;
2039;SDS011;1025;42.686;23.350;2023-05-29T01:15:52;7.77;;;6.63;;
2039;SDS011;1025;42.686;23.350;2023-05-29T01:18:26;7.63;;;6.93;;
2039;SDS011;1025;42.686;23.350;2023-05-29T01:21:03;7.13;;;6.37;;
2039;SDS011;1025;42.686;23.350;2023-05-29T01:23:52;8.03;;;6.70;;
2039;SDS011;1025;42.686;23.350;2023-05-29T01:29:07;9.17;;;7.07;;
2039;SDS011;1025;42.686;23.350;2023-05-29T01:31:34;9.60;;;6.70;;
2039;SDS011;1025;42.686;23.350;2023-05-29T01:34:00;6.67;;;5.93;;
2039;SDS011;1025;42.686;23.350;2023-05-29T01:36:27;7.63;;;6.93;;
2039;SDS011;1025;42.686;23.350;2023-05-29T01:38:55;8.63;;;7.10;;
2039;SDS011;1025;42.686;23.350;2023-05-29T01:41:22;7.17;;;6.40;;
2039;SDS011;1025;42.686;23.350;2023-05-29T01:43:49;7.57;;;6.53;;
2039;SDS011;1025;42.686;23.350;2023-05-29T01:46:18;10.27;;;7.20;;
2039;SDS011;1025;42.686;23.350;2023-05-29T01:48:44;7.53;;;6.73;;
2039;SDS011;1025;42.686;23.350;2023-05-29T01:51:12;11.80;;;8.43;;
2039;SDS011;1025;42.686;23.350;2023-05-29T01:53:38;7.57;;;6.77;;
2039;SDS011;1025;42.686;23.350;2023-05-29T01:56:05;6.63;;;6.13;;
2039;SDS011;1025;42.686;23.350;2023-05-29T01:58:32;9.20;;;8.30;;
2039;SDS011;1025;42.686;23.350;2023-05-29T02:00:59;9.07;;;6.70;;
2039;SDS011;1025;42.686;23.350;2023-05-29T02:03:27;7.43;;;6.83;;
2039;SDS011;1025;42.686;23.350;2023-05-29T02:05:54;8.77;;;6.97;;
2039;SDS011;1025;42.686;23.350;2023-05-29T02:08:20;9.27;;;7.63;;
2039;SDS011;1025;42.686;23.350;2023-05-29T02:10:47;9.30;;;8.17;;
2039;SDS011;1025;42.686;23.350;2023-05-29T02:13:14;11.93;;;8.30;;
2039;SDS011;1025;42.686;23.350;2023-05-29T02:15:40;9.43;;;8.10;;
2039;SDS011;1025;42.686;23.350;2023-05-29T02:18:08;9.10;;;7.73;;
2039;SDS011;1025;42.686;23.350;2023-05-29T02:20:38;13.60;;;8.60;;
2039;SDS011;1025;42.686;23.350;2023-05-29T02:23:05;9.47;;;8.50;;
2039;SDS011;1025;42.686;23.350;2023-05-29T02:25:31;8.60;;;7.80;;
2039;SDS011;1025;42.686;23.350;2023-05-29T02:27:58;9.57;;;8.57;;
2039;SDS011;1025;42.686;23.350;2023-05-29T02:30:24;11.23;;;9.37;;
2039;SDS011;1025;42.686;23.350;2023-05-29T02:32:51;9.73;;;8.57;;
2039;SDS011;1025;42.686;23.350;2023-05-29T02:35:17;13.47;;;7.80;;
2039;SDS011;1025;42.686;23.350;2023-05-29T02:37:49;9.37;;;8.33;;
2039;SDS011;1025;42.686;23.350;2023-05-29T02:40:15;10.53;;;8.30;;
2039;SDS011;1025;42.686;23.350;2023-05-29T02:42:42;19.93;;;9.37;;
2039;SDS011;1025;42.686;23.350;2023-05-29T02:45:09;10.50;;;7.80;;
2039;SDS011;1025;42.686;23.350;2023-05-29T02:47:35;10.80;;;9.00;;
2039;SDS011;1025;42.686;23.350;2023-05-29T02:50:02;12.93;;;8.80;;
2039;SDS011;1025;42.686;23.350;2023-05-29T02:52:29;8.70;;;7.90;;
2039;SDS011;1025;42.686;23.350;2023-05-29T02:54:58;10.63;;;8.90;;
2039;SDS011;1025;42.686;23.350;2023-05-29T02:57:25;14.60;;;10.00;;
2039;SDS011;1025;42.686;23.350;2023-05-29T02:59:51;15.30;;;8.10;;
2039;SDS011;1025;42.686;23.350;2023-05-29T03:02:18;10.10;;;7.60;;
2039;SDS011;1025;42.686;23.350;2023-05-29T03:04:44;9.23;;;8.33;;
2039;SDS011;1025;42.686;23.350;2023-05-29T03:07:11;9.93;;;8.27;;
2039;SDS011;1025;42.686;23.350;2023-05-29T03:09:38;12.50;;;9.13;;
2039;SDS011;1025;42.686;23.350;2023-05-29T03:12:06;9.20;;;8.17;;
2039;SDS011;1025;42.686;23.350;2023-05-29T03:14:33;11.40;;;8.23;;
2039;SDS011;1025;42.686;23.350;2023-05-29T03:17:01;15.60;;;8.13;;
2039;SDS011;1025;42.686;23.350;2023-05-29T03:19:27;10.27;;;7.87;;
2039;SDS011;1025;42.686;23.350;2023-05-29T03:21:54;9.53;;;8.17;;
2039;SDS011;1025;42.686;23.350;2023-05-29T03:24:20;11.40;;;7.23;;
2039;SDS011;1025;42.686;23.350;2023-05-29T03:26:48;9.80;;;7.30;;
2039;SDS011;1025;42.686;23.350;2023-05-29T03:29:16;15.47;;;8.70;;
2039;SDS011;1025;42.686;23.350;2023-05-29T03:31:43;12.20;;;8.63;;
2039;SDS011;1025;42.686;23.350;2023-05-29T03:34:09;10.60;;;8.80;;
2039;SDS011;1025;42.686;23.350;2023-05-29T03:36:36;13.67;;;8.87;;
2039;SDS011;1025;42.686;23.350;2023-05-29T03:39:17;15.60;;;10.67;;
2039;SDS011;1025;42.686;23.350;2023-05-29T03:41:43;12.30;;;8.87;;
2039;SDS011;1025;42.686;23.350;2023-05-29T03:44:10;16.57;;;9.10;;
2039;SDS011;1025;42.686;23.350;2023-05-29T03:46:38;9.83;;;7.47;;
2039;SDS011;1025;42.686;23.350;2023-05-29T03:49:05;9.03;;;8.20;;
2039;SDS011;1025;42.686;23.350;2023-05-29T03:51:32;9.10;;;7.00;;
2039;SDS011;1025;42.686;23.350;2023-05-29T03:53:58;10.33;;;7.30;;
2039;SDS011;1025;42.686;23.350;2023-05-29T03:56:25;7.70;;;7.00;;
2039;SDS011;1025;42.686;23.350;2023-05-29T03:58:52;9.93;;;7.00;;
2039;SDS011;1025;42.686;23.350;2023-05-29T04:01:18;15.37;;;8.80;;
2039;SDS011;1025;42.686;23.350;2023-05-29T04:03:46;19.53;;;9.27;;
2039;SDS011;1025;42.686;23.350;2023-05-29T04:06:13;15.80;;;9.30;;
2039;SDS011;1025;42.686;23.350;2023-05-29T04:08:39;11.57;;;8.40;;
2039;SDS011;1025;42.686;23.350;2023-05-29T04:11:06;12.10;;;8.70;;
2039;SDS011;1025;42.686;23.350;2023-05-29T04:13:33;17.90;;;9.13;;
2039;SDS011;1025;42.686;23.350;2023-05-29T04:15:59;17.47;;;9.70;;
2039;SDS011;1025;42.686;23.350;2023-05-29T04:18:26;16.23;;;9.60;;
2039;SDS011;1025;42.686;23.350;2023-05-29T04:20:54;15.07;;;9.13;;
2039;SDS011;1025;42.686;23.350;2023-05-29T04:23:20;14.33;;;8.00;;
2039;SDS011;1025;42.686;23.350;2023-05-29T04:25:47;11.43;;;8.10;;
2039;SDS011;1025;42.686;23.350;2023-05-29T04:28:16;21.77;;;8.97;;
2039;SDS011;1025;42.686;23.350;2023-05-29T04:30:42;9.43;;;8.23;;
2039;SDS011;1025;42.686;23.350;2023-05-29T04:33:11;21.33;;;9.20;;
2039;SDS011;1025;42.686;23.350;2023-05-29T04:35:40;8.10;;;6.87;;
2039;SDS011;1025;42.686;23.350;2023-05-29T04:38:09;9.90;;;7.17;;
2039;SDS011;1025;42.686;23.350;2023-05-29T04:40:36;9.77;;;8.03;;
2039;SDS011;1025;42.686;23.350;2023-05-29T04:43:02;11.20;;;9.53;;
2039;SDS011;1025;42.686;23.350;2023-05-29T04:45:30;10.20;;;6.70;;
2039;SDS011;1025;42.686;23.350;2023-05-29T04:47:56;8.87;;;6.87;;
2039;SDS011;1025;42.686;23.350;2023-05-29T04:50:23;13.70;;;9.03;;
2039;SDS011;1025;42.686;23.350;2023-05-29T04:52:49;27.37;;;8.43;;
2039;SDS011;1025;42.686;23.350;2023-05-29T04:55:17;12.53;;;9.20;;
2039;SDS011;1025;42.686;23.350;2023-05-29T04:57:44;22.87;;;10.73;;
2039;SDS011;1025;42.686;23.350;2023-05-29T05:00:11;17.17;;;10.47;;
2039;SDS011;1025;42.686;23.350;2023-05-29T05:02:39;20.50;;;12.13;;
2039;SDS011;1025;42.686;23.350;2023-05-29T05:05:06;18.47;;;11.03;;
2039;SDS011;1025;42.686;23.350;2023-05-29T05:07:33;24.00;;;12.43;;
2039;SDS011;1025;42.686;23.350;2023-05-29T05:10:00;17.57;;;10.97;;
2039;SDS011;1025;42.686;23.350;2023-05-29T05:12:28;22.67;;;11.57;;
2039;SDS011;1025;42.686;23.350;2023-05-29T05:14:54;24.80;;;11.67;;
2039;SDS011;1025;42.686;23.350;2023-05-29T05:17:21;16.13;;;12.10;;
2039;SDS011;1025;42.686;23.350;2023-05-29T05:19:47;13.93;;;12.27;;
2039;SDS011;1025;42.686;23.350;2023-05-29T05:22:15;26.63;;;12.97;;
2039;SDS011;1025;42.686;23.350;2023-05-29T05:24:41;18.90;;;13.33;;
2039;SDS011;1025;42.686;23.350;2023-05-29T05:27:08;17.50;;;9.87;;
2039;SDS011;1025;42.686;23.350;2023-05-29T05:29:36;24.70;;;11.83;;
2039;SDS011;1025;42.686;23.350;2023-05-29T05:32:02;22.40;;;11.27;;
2039;SDS011;1025;42.686;23.350;2023-05-29T05:34:29;18.63;;;10.70;;
2039;SDS011;1025;42.686;23.350;2023-05-29T05:36:55;13.90;;;10.93;;
2039;SDS011;1025;42.686;23.350;2023-05-29T05:39:22;16.80;;;11.10;;
2039;SDS011;1025;42.686;23.350;2023-05-29T05:41:48;24.20;;;11.13;;
2039;SDS011;1025;42.686;23.350;2023-05-29T05:44:15;19.60;;;11.83;;
2039;SDS011;1025;42.686;23.350;2023-05-29T05:46:43;23.47;;;12.27;;
2039;SDS011;1025;42.686;23.350;2023-05-29T05:49:10;24.03;;;11.37;;
2039;SDS011;1025;42.686;23.350;2023-05-29T05:51:36;16.23;;;10.73;;
2039;SDS011;1025;42.686;23.350;2023-05-29T05:54:03;13.43;;;8.27;;
2039;SDS011;1025;42.686;23.350;2023-05-29T05:56:31;15.60;;;9.13;;
2039;SDS011;1025;42.686;23.350;2023-05-29T05:58:57;8.70;;;7.03;;
2039;SDS011;1025;42.686;23.350;2023-05-29T06:01:24;8.80;;;7.00;;
2039;SDS011;1025;42.686;23.350;2023-05-29T06:03:52;11.60;;;4.97;;
2039;SDS011;1025;42.686;23.350;2023-05-29T06:06:19;9.57;;;4.80;;
2039;SDS011;1025;42.686;23.350;2023-05-29T06:08:46;8.60;;;5.53;;
2039;SDS011;1025;42.686;23.350;2023-05-29T06:11:13;7.20;;;5.20;;
2039;SDS011;1025;42.686;23.350;2023-05-29T06:13:40;7.07;;;6.27;;
2039;SDS011;1025;42.686;23.350;2023-05-29T06:16:06;13.83;;;5.20;;
2039;SDS011;1025;42.686;23.350;2023-05-29T06:18:33;8.07;;;5.10;;
2039;SDS011;1025;42.686;23.350;2023-05-29T06:21:01;7.30;;;4.40;;
2039;SDS011;1025;42.686;23.350;2023-05-29T06:23:27;5.67;;;5.17;;
2039;SDS011;1025;42.686;23.350;2023-05-29T06:25:54;11.13;;;6.07;;
2039;SDS011;1025;42.686;23.350;2023-05-29T06:28:20;13.63;;;6.57;;
2039;SDS011;1025;42.686;23.350;2023-05-29T06:30:47;8.20;;;4.87;;
2039;SDS011;1025;42.686;23.350;2023-05-29T06:33:13;6.80;;;5.17;;
2039;SDS011;1025;42.686;23.350;2023-05-29T06:35:40;7.03;;;4.50;;
2039;SDS011;1025;42.686;23.350;2023-05-29T06:38:08;7.00;;;4.23;;
2039;SDS011;1025;42.686;23.350;2023-05-29T06:40:35;5.77;;;4.07;;
2039;SDS011;1025;42.686;23.350;2023-05-29T06:43:01;9.20;;;4.80;;
2039;SDS011;1025;42.686;23.350;2023-05-29T06:45:28;10.37;;;3.73;;
2039;SDS011;1025;42.686;23.350;2023-05-29T06:47:55;10.33;;;4.40;;
2039;SDS011;1025;42.686;23.350;2023-05-29T06:50:21;14.03;;;6.13;;
2039;SDS011;1025;42.686;23.350;2023-05-29T06:52:48;6.37;;;4.37;;
2039;SDS011;1025;42.686;23.350;2023-05-29T06:55:16;7.40;;;3.80;;
2039;SDS011;1025;42.686;23.350;2023-05-29T06:57:42;3.33;;;3.13;;
2039;SDS011;1025;42.686;23.350;2023-05-29T07:00:10;5.20;;;4.17;;
2039;SDS011;1025;42.686;23.350;2023-05-29T07:02:36;4.37;;;2.47;;
2039;SDS011;1025;42.686;23.350;2023-05-29T07:05:03;17.70;;;8.20;;
2039;SDS011;1025;42.686;23.350;2023-05-29T07:07:30;4.23;;;3.40;;
2039;SDS011;1025;42.686;23.350;2023-05-29T07:09:56;5.80;;;3.13;;
2039;SDS011;1025;42.686;23.350;2023-05-29T07:12:24;5.90;;;3.37;;
2039;SDS011;1025;42.686;23.350;2023-05-29T07:14:51;11.67;;;5.30;;
2039;SDS011;1025;42.686;23.350;2023-05-29T07:17:17;7.47;;;3.90;;
2039;SDS011;1025;42.686;23.350;2023-05-29T07:19:44;13.83;;;6.40;;
2039;SDS011;1025;42.686;23.350;2023-05-29T07:22:11;6.60;;;2.93;;
2039;SDS011;1025;42.686;23.350;2023-05-29T07:24:38;4.07;;;3.53;;
2039;SDS011;1025;42.686;23.350;2023-05-29T07:27:04;3.43;;;2.93;;
2039;SDS011;1025;42.686;23.350;2023-05-29T07:29:33;6.43;;;3.40;;
2039;SDS011;1025;42.686;23.350;2023-05-29T07:31:59;6.93;;;4.27;;
2039;SDS011;1025;42.686;23.350;2023-05-29T07:34:26;9.70;;;3.60;;
2039;SDS011;1025;42.686;23.350;2023-05-29T07:36:56;3.43;;;3.13;;
2039;SDS011;1025;42.686;23.350;2023-05-29T07:39:22;5.73;;;3.10;;
2039;SDS011;1025;42.686;23.350;2023-05-29T07:41:49;3.90;;;2.90;;
2039;SDS011;1025;42.686;23.350;2023-05-29T07:44:16;5.03;;;4.27;;
2039;SDS011;1025;42.686;23.350;2023-05-29T07:46:44;4.17;;;3.87;;
2039;SDS011;1025;42.686;23.350;2023-05-29T07:49:11;4.07;;;2.50;;
2039;SDS011;1025;42.686;23.350;2023-05-29T07:51:37;4.43;;;2.73;;
2039;SDS011;1025;42.686;23.350;2023-05-29T07:54:04;4.17;;;3.77;;
2039;SDS011;1025;42.686;23.350;2023-05-29T07:56:31;3.30;;;2.80;;
2039;SDS011;1025;42.686;23.350;2023-05-29T07:58:58;3.20;;;3.00;;
2039;SDS011;1025;42.686;23.350;2023-05-29T08:01:25;2.67;;;2.47;;
2039;SDS011;1025;42.686;23.350;2023-05-29T08:03:53;3.57;;;2.50;;
2039;SDS011;1025;42.686;23.350;2023-05-29T08:06:20;3.43;;;2.83;;
2039;SDS011;1025;42.686;23.350;2023-05-29T08:08:46;2.33;;;2.00;;
2039;SDS011;1025;42.686;23.350;2023-05-29T08:11:13;4.80;;;3.90;;
2039;SDS011;1025;42.686;23.350;2023-05-29T08:13:40;5.43;;;4.13;;
2039;SDS011;1025;42.686;23.350;2023-05-29T08:16:07;8.20;;;4.03;;
2039;SDS011;1025;42.686;23.350;2023-05-29T08:18:33;3.10;;;2.80;;
2039;SDS011;1025;42.686;23.350;2023-05-29T08:21:02;3.60;;;3.30;;
2039;SDS011;1025;42.686;23.350;2023-05-29T08:23:28;6.10;;;4.00;;
2039;SDS011;1025;42.686;23.350;2023-05-29T08:25:56;3.10;;;2.80;;
2039;SDS011;1025;42.686;23.350;2023-05-29T08:28:23;4.90;;;4.00;;
2039;SDS011;1025;42.686;23.350;2023-05-29T08:30:52;8.40;;;7.13;;
2039;SDS011;1025;42.686;23.350;2023-05-29T08:33:18;4.63;;;4.23;;
2039;SDS011;1025;42.686;23.350;2023-05-29T08:35:45;16.47;;;7.87;;
2039;SDS011;1025;42.686;23.350;2023-05-29T08:38:13;14.00;;;12.47;;
2039;SDS011;1025;42.686;23.350;2023-05-29T08:40:39;3.60;;;3.30;;
2039;SDS011;1025;42.686;23.350;2023-05-29T08:43:06;5.43;;;3.87;;
2039;SDS011;1025;42.686;23.350;2023-05-29T08:45:34;6.63;;;3.80;;
2039;SDS011;1025;42.686;23.350;2023-05-29T08:48:03;3.83;;;2.27;;
2039;SDS011;1025;42.686;23.350;2023-05-29T08:50:31;3.27;;;3.00;;
2039;SDS011;1025;42.686;23.350;2023-05-29T08:52:58;4.27;;;2.40;;
2039;SDS011;1025;42.686;23.350;2023-05-29T08:55:26;3.13;;;2.93;;
2039;SDS011;1025;42.686;23.350;2023-05-29T08:57:53;6.60;;;3.53;;
2039;SDS011;1025;42.686;23.350;2023-05-29T09:00:21;5.10;;;3.93;;
2039;SDS011;1025;42.686;23.350;2023-05-29T09:02:53;3.70;;;3.47;;
2039;SDS011;1025;42.686;23.350;2023-05-29T09:05:20;6.30;;;5.50;;
2039;SDS011;1025;42.686;23.350;2023-05-29T09:07:47;3.80;;;3.07;;
2039;SDS011;1025;42.686;23.350;2023-05-29T09:10:14;4.13;;;3.50;;
2039;SDS011;1025;42.686;23.350;2023-05-29T09:12:42;3.83;;;3.17;;
2039;SDS011;1025;42.686;23.350;2023-05-29T09:15:16;5.83;;;4.10;;
2039;SDS011;1025;42.686;23.350;2023-05-29T09:17:43;6.87;;;3.60;;
2039;SDS011;1025;42.686;23.350;2023-05-29T09:20:14;4.20;;;3.90;;
2039;SDS011;1025;42.686;23.350;2023-05-29T09:22:42;4.57;;;3.77;;
2039;SDS011;1025;42.686;23.350;2023-05-29T09:25:08;4.57;;;4.17;;
2039;SDS011;1025;42.686;23.350;2023-05-29T09:27:38;7.33;;;4.97;;
2039;SDS011;1025;42.686;23.350;2023-05-29T09:30:06;3.20;;;3.00;;
2039;SDS011;1025;42.686;23.350;2023-05-29T09:32:35;5.90;;;5.40;;
2039;SDS011;1025;42.686;23.350;2023-05-29T09:35:02;5.13;;;4.67;;
2039;SDS011;1025;42.686;23.350;2023-05-29T09:37:29;4.90;;;4.10;;
2039;SDS011;1025;42.686;23.350;2023-05-29T09:39:55;11.97;;;7.77;;
2039;SDS011;1025;42.686;23.350;2023-05-29T09:42:22;4.20;;;3.63;;
2039;SDS011;1025;42.686;23.350;2023-05-29T09:44:48;2.90;;;2.70;;
2039;SDS011;1025;42.686;23.350;2023-05-29T09:47:18;10.63;;;7.30;;
2039;SDS011;1025;42.686;23.350;2023-05-29T09:49:44;3.13;;;2.90;;
2039;SDS011;1025;42.686;23.350;2023-05-29T09:52:11;4.60;;;4.20;;
2039;SDS011;1025;42.686;23.350;2023-05-29T09:54:41;4.50;;;4.13;;
2039;SDS011;1025;42.686;23.350;2023-05-29T09:57:10;4.03;;;3.57;;
2039;SDS011;1025;42.686;23.350;2023-05-29T09:59:37;5.23;;;4.83;;
2039;SDS011;1025;42.686;23.350;2023-05-29T10:02:04;3.40;;;3.10;;
2039;SDS011;1025;42.686;23.350;2023-05-29T10:04:33;4.20;;;3.30;;
2039;SDS011;1025;42.686;23.350;2023-05-29T10:07:00;2.93;;;2.70;;
2039;SDS011;1025;42.686;23.350;2023-05-29T10:09:30;4.43;;;4.03;;
2039;SDS011;1025;42.686;23.350;2023-05-29T10:11:57;3.60;;;3.30;;
2039;SDS011;1025;42.686;23.350;2023-05-29T10:14:27;3.30;;;3.00;;
2039;SDS011;1025;42.686;23.350;2023-05-29T10:16:56;5.50;;;3.93;;
2039;SDS011;1025;42.686;23.350;2023-05-29T10:19:24;3.50;;;3.20;;
2039;SDS011;1025;42.686;23.350;2023-05-29T10:21:52;7.20;;;3.50;;
2039;SDS011;1025;42.686;23.350;2023-05-29T10:24:20;5.00;;;3.60;;
2039;SDS011;1025;42.686;23.350;2023-05-29T10:26:48;2.80;;;2.60;;
2039;SDS011;1025;42.686;23.350;2023-05-29T10:29:17;3.70;;;3.40;;
2039;SDS011;1025;42.686;23.350;2023-05-29T10:31:48;3.30;;;2.90;;
2039;SDS011;1025;42.686;23.350;2023-05-29T10:34:18;2.83;;;2.60;;
2039;SDS011;1025;42.686;23.350;2023-05-29T10:36:49;3.70;;;3.40;;
2039;SDS011;1025;42.686;23.350;2023-05-29T10:39:17;4.03;;;2.90;;
2039;SDS011;1025;42.686;23.350;2023-05-29T10:41:46;4.20;;;3.90;;
2039;SDS011;1025;42.686;23.350;2023-05-29T10:47:06;4.23;;;3.77;;
2039;SDS011;1025;42.686;23.350;2023-05-29T10:49:34;4.30;;;3.90;;
2039;SDS011;1025;42.686;23.350;2023-05-29T10:52:00;3.13;;;2.93;;
2039;SDS011;1025;42.686;23.350;2023-05-29T10:54:39;3.10;;;2.90;;
2039;SDS011;1025;42.686;23.350;2023-05-29T10:57:06;2.60;;;2.50;;
2039;SDS011;1025;42.686;23.350;2023-05-29T10:59:35;3.97;;;3.07;;
2039;SDS011;1025;42.686;23.350;2023-05-29T11:02:02;7.77;;;5.40;;
2039;SDS011;1025;42.686;23.350;2023-05-29T11:04:29;27.63;;;10.33;;
2039;SDS011;1025;42.686;23.350;2023-05-29T11:06:59;12.63;;;5.00;;
2039;SDS011;1025;42.686;23.350;2023-05-29T11:09:26;3.70;;;3.40;;
2039;SDS011;1025;42.686;23.350;2023-05-29T11:14:45;3.47;;;3.17;;
2039;SDS011;1025;42.686;23.350;2023-05-29T11:19:54;3.50;;;3.20;;
2039;SDS011;1025;42.686;23.350;2023-05-29T11:22:22;7.00;;;3.20;;
2039;SDS011;1025;42.686;23.350;2023-05-29T11:24:51;6.80;;;4.23;;
2039;SDS011;1025;42.686;23.350;2023-05-29T11:27:19;3.73;;;2.83;;
2039;SDS011;1025;42.686;23.350;2023-05-29T11:29:48;3.93;;;2.60;;
2039;SDS011;1025;42.686;23.350;2023-05-29T11:32:18;2.60;;;2.50;;
2039;SDS011;1025;42.686;23.350;2023-05-29T11:34:46;4.60;;;3.70;;
2039;SDS011;1025;42.686;23.350;2023-05-29T11:37:14;5.03;;;4.73;;
2039;SDS011;1025;42.686;23.350;2023-05-29T11:39:41;2.97;;;2.77;;
2039;SDS011;1025;42.686;23.350;2023-05-29T11:42:07;2.80;;;2.60;;
2039;SDS011;1025;42.686;23.350;2023-05-29T11:44:34;3.10;;;2.90;;
2039;SDS011;1025;42.686;23.350;2023-05-29T11:47:02;3.27;;;2.97;;
2039;SDS011;1025;42.686;23.350;2023-05-29T11:49:29;3.00;;;2.80;;
2039;SDS011;1025;42.686;23.350;2023-05-29T11:52:05;4.63;;;3.30;;
2039;SDS011;1025;42.686;23.350;2023-05-29T11:54:32;3.07;;;2.77;;
2039;SDS011;1025;42.686;23.350;2023-05-29T11:56:59;3.70;;;2.93;;
2039;SDS011;1025;42.686;23.350;2023-05-29T11:59:28;6.27;;;3.60;;
2039;SDS011;1025;42.686;23.350;2023-05-29T12:01:54;4.40;;;4.10;;
2039;SDS011;1025;42.686;23.350;2023-05-29T12:04:24;5.30;;;3.80;;
2039;SDS011;1025;42.686;23.350;2023-05-29T12:06:51;5.13;;;4.47;;
2039;SDS011;1025;42.686;23.350;2023-05-29T12:09:24;4.20;;;3.67;;
2039;SDS011;1025;42.686;23.350;2023-05-29T12:11:51;4.70;;;4.03;;
2039;SDS011;1025;42.686;23.350;2023-05-29T12:14:18;8.20;;;3.83;;
2039;SDS011;1025;42.686;23.350;2023-05-29T12:16:44;5.27;;;4.10;;
2039;SDS011;1025;42.686;23.350;2023-05-29T12:19:11;4.17;;;3.87;;
2039;SDS011;1025;42.686;23.350;2023-05-29T12:21:42;5.70;;;4.33;;
2039;SDS011;1025;42.686;23.350;2023-05-29T12:24:09;5.70;;;5.20;;
2039;SDS011;1025;42.686;23.350;2023-05-29T12:26:36;4.87;;;4.47;;
2039;SDS011;1025;42.686;23.350;2023-05-29T12:29:03;7.00;;;5.93;;
2039;SDS011;1025;42.686;23.350;2023-05-29T12:31:30;5.23;;;4.73;;
2039;SDS011;1025;42.686;23.350;2023-05-29T12:34:00;10.53;;;4.70;;
2039;SDS011;1025;42.686;23.350;2023-05-29T12:36:27;10.80;;;7.10;;
2039;SDS011;1025;42.686;23.350;2023-05-29T12:38:55;13.20;;;8.00;;
2039;SDS011;1025;42.686;23.350;2023-05-29T12:41:26;12.40;;;7.17;;
2039;SDS011;1025;42.686;23.350;2023-05-29T12:43:53;12.10;;;7.60;;
2039;SDS011;1025;42.686;23.350;2023-05-29T12:46:21;3.80;;;3.50;;
2039;SDS011;1025;42.686;23.350;2023-05-29T12:48:48;6.47;;;4.43;;
2039;SDS011;1025;42.686;23.350;2023-05-29T12:51:17;8.00;;;6.30;;
2039;SDS011;1025;42.686;23.350;2023-05-29T12:53:44;10.03;;;6.00;;
2039;SDS011;1025;42.686;23.350;2023-05-29T12:56:12;11.63;;;6.30;;
2039;SDS011;1025;42.686;23.350;2023-05-29T12:58:38;7.10;;;5.13;;
2039;SDS011;1025;42.686;23.350;2023-05-29T13:01:05;7.80;;;6.60;;
2039;SDS011;1025;42.686;23.350;2023-05-29T13:03:38;7.77;;;5.93;;
2039;SDS011;1025;42.686;23.350;2023-05-29T13:06:04;9.87;;;7.27;;
2039;SDS011;1025;42.686;23.350;2023-05-29T13:08:31;9.73;;;7.50;;
2039;SDS011;1025;42.686;23.350;2023-05-29T13:10:57;7.90;;;5.90;;
2039;SDS011;1025;42.686;23.350;2023-05-29T13:13:25;5.57;;;4.80;;
2039;SDS011;1025;42.686;23.350;2023-05-29T13:15:52;6.17;;;4.20;;
2039;SDS011;1025;42.686;23.350;2023-05-29T13:18:18;12.77;;;5.53;;
2039;SDS011;1025;42.686;23.350;2023-05-29T13:20:45;6.77;;;4.80;;
2039;SDS011;1025;42.686;23.350;2023-05-29T13:23:12;12.03;;;6.83;;
2039;SDS011;1025;42.686;23.350;2023-05-29T13:25:38;15.20;;;5.43;;
2039;SDS011;1025;42.686;23.350;2023-05-29T13:28:05;5.10;;;3.47;;
2039;SDS011;1025;42.686;23.350;2023-05-29T13:30:33;15.30;;;5.00;;
2039;SDS011;1025;42.686;23.350;2023-05-29T13:32:59;33.83;;;7.77;;
2039;SDS011;1025;42.686;23.350;2023-05-29T13:35:26;12.77;;;4.47;;
2039;SDS011;1025;42.686;23.350;2023-05-29T13:37:52;19.57;;;5.17;;
2039;SDS011;1025;42.686;23.350;2023-05-29T13:40:19;37.17;;;8.07;;
2039;SDS011;1025;42.686;23.350;2023-05-29T13:42:45;30.93;;;7.47;;
2039;SDS011;1025;42.686;23.350;2023-05-29T13:45:12;35.20;;;9.87;;
2039;SDS011;1025;42.686;23.350;2023-05-29T13:47:40;14.10;;;5.10;;
2039;SDS011;1025;42.686;23.350;2023-05-29T13:50:07;11.20;;;3.90;;
2039;SDS011;1025;42.686;23.350;2023-05-29T13:52:34;12.87;;;3.90;;
2039;SDS011;1025;42.686;23.350;2023-05-29T13:55:01;18.30;;;3.87;;
2039;SDS011;1025;42.686;23.350;2023-05-29T13:57:31;4.93;;;2.80;;
2039;SDS011;1025;42.686;23.350;2023-05-29T13:59:58;5.20;;;2.60;;
2039;SDS011;1025;42.686;23.350;2023-05-29T14:02:24;2.30;;;2.10;;
2039;SDS011;1025;42.686;23.350;2023-05-29T14:04:53;2.60;;;2.13;;
2039;SDS011;1025;42.686;23.350;2023-05-29T14:07:19;8.67;;;2.60;;
2039;SDS011;1025;42.686;23.350;2023-05-29T14:09:46;5.27;;;2.80;;
2039;SDS011;1025;42.686;23.350;2023-05-29T14:12:12;3.57;;;2.20;;
2039;SDS011;1025;42.686;23.350;2023-05-29T14:14:39;5.43;;;2.20;;
2039;SDS011;1025;42.686;23.350;2023-05-29T14:17:05;10.23;;;3.37;;
2039;SDS011;1025;42.686;23.350;2023-05-29T14:19:32;8.37;;;2.50;;
2039;SDS011;1025;42.686;23.350;2023-05-29T14:22:00;2.20;;;1.97;;
2039;SDS011;1025;42.686;23.350;2023-05-29T14:24:26;4.90;;;2.57;;
2039;SDS011;1025;42.686;23.350;2023-05-29T14:26:53;4.43;;;2.50;;
2039;SDS011;1025;42.686;23.350;2023-05-29T14:29:19;6.33;;;2.67;;
2039;SDS011;1025;42.686;23.350;2023-05-29T14:31:46;8.50;;;3.03;;
2039;SDS011;1025;42.686;23.350;2023-05-29T14:34:12;3.03;;;2.13;;
2039;SDS011;1025;42.686;23.350;2023-05-29T14:36:39;3.00;;;2.57;;
2039;SDS011;1025;42.686;23.350;2023-05-29T14:39:10;4.03;;;2.20;;
2039;SDS011;1025;42.686;23.350;2023-05-29T14:41:37;13.27;;;4.20;;
2039;SDS011;1025;42.686;23.350;2023-05-29T14:44:04;5.93;;;2.47;;
2039;SDS011;1025;42.686;23.350;2023-05-29T14:46:31;1.80;;;1.67;;
2039;SDS011;1025;42.686;23.350;2023-05-29T14:48:57;2.43;;;2.30;;
2039;SDS011;1025;42.686;23.350;2023-05-29T14:51:24;1.63;;;1.53;;
2039;SDS011;1025;42.686;23.350;2023-05-29T14:53:51;5.03;;;2.10;;
2039;SDS011;1025;42.686;23.350;2023-05-29T14:56:19;2.20;;;2.00;;
2039;SDS011;1025;42.686;23.350;2023-05-29T14:58:45;6.80;;;2.60;;
2039;SDS011;1025;42.686;23.350;2023-05-29T15:01:13;9.10;;;3.00;;
2039;SDS011;1025;42.686;23.350;2023-05-29T15:03:39;3.40;;;2.87;;
2039;SDS011;1025;42.686;23.350;2023-05-29T15:06:06;3.23;;;2.30;;
2039;SDS011;1025;42.686;23.350;2023-05-29T15:08:32;4.90;;;2.07;;